< < Back
Terminal Aerodrome Forecast


Current Version              Previous Versions:   1  2  3  4  5  6  7  8  9  

Terminal Aerodrome Forecast

811
FTUS42 KTAE 301700
TAFDHN
TAF
KDHN 301720Z 3018/3118 34008KT P6SM SKC=



Latest METAR

049
SAUS70 KWBC 301900 RRM
MTRDHN
METAR KDHN 301853Z 02007KT 10SM CLR 22/04 A3002 RMK AO2 SLP162
T02220039


USA.gov is the U.S. government's official web portal to all federal, state and local government web resources and services.